sensor_id;sensor_type;location;lat;lon;timestamp;P1;durP1;ratioP1;P2;durP2;ratioP2
14554;SDS011;7364;50.870;4.722;2023-02-08T00:00:35;20.07;;;15.27;;
14554;SDS011;7364;50.870;4.722;2023-02-08T00:03:03;21.03;;;15.73;;
14554;SDS011;7364;50.870;4.722;2023-02-08T00:05:30;17.70;;;13.97;;
14554;SDS011;7364;50.870;4.722;2023-02-08T00:07:58;24.40;;;15.70;;
14554;SDS011;7364;50.870;4.722;2023-02-08T00:10:26;21.87;;;14.73;;
14554;SDS011;7364;50.870;4.722;2023-02-08T00:12:54;23.83;;;16.23;;
14554;SDS011;7364;50.870;4.722;2023-02-08T00:15:21;21.67;;;15.17;;
14554;SDS011;7364;50.870;4.722;2023-02-08T00:17:48;22.90;;;16.50;;
14554;SDS011;7364;50.870;4.722;2023-02-08T00:20:15;26.47;;;16.97;;
14554;SDS011;7364;50.870;4.722;2023-02-08T00:22:43;19.00;;;15.37;;
14554;SDS011;7364;50.870;4.722;2023-02-08T00:25:10;25.03;;;17.40;;
14554;SDS011;7364;50.870;4.722;2023-02-08T00:27:39;23.90;;;16.40;;
14554;SDS011;7364;50.870;4.722;2023-02-08T00:30:07;22.93;;;16.27;;
14554;SDS011;7364;50.870;4.722;2023-02-08T00:32:35;23.50;;;15.97;;
14554;SDS011;7364;50.870;4.722;2023-02-08T00:35:02;22.33;;;15.90;;
14554;SDS011;7364;50.870;4.722;2023-02-08T00:37:29;22.87;;;16.90;;
14554;SDS011;7364;50.870;4.722;2023-02-08T00:39:57;22.13;;;17.27;;
14554;SDS011;7364;50.870;4.722;2023-02-08T00:42:26;23.23;;;16.43;;
14554;SDS011;7364;50.870;4.722;2023-02-08T00:44:55;29.60;;;17.93;;
14554;SDS011;7364;50.870;4.722;2023-02-08T00:47:23;26.80;;;17.77;;
14554;SDS011;7364;50.870;4.722;2023-02-08T00:49:51;27.53;;;17.97;;
14554;SDS011;7364;50.870;4.722;2023-02-08T00:52:18;24.43;;;16.13;;
14554;SDS011;7364;50.870;4.722;2023-02-08T00:54:46;25.73;;;16.90;;
14554;SDS011;7364;50.870;4.722;2023-02-08T00:57:14;24.43;;;16.27;;
14554;SDS011;7364;50.870;4.722;2023-02-08T00:59:41;24.40;;;17.27;;
14554;SDS011;7364;50.870;4.722;2023-02-08T01:02:10;21.90;;;16.10;;
14554;SDS011;7364;50.870;4.722;2023-02-08T01:04:37;22.37;;;16.30;;
14554;SDS011;7364;50.870;4.722;2023-02-08T01:07:05;26.60;;;17.50;;
14554;SDS011;7364;50.870;4.722;2023-02-08T01:09:32;24.23;;;17.93;;
14554;SDS011;7364;50.870;4.722;2023-02-08T01:12:00;25.10;;;16.93;;
14554;SDS011;7364;50.870;4.722;2023-02-08T01:14:27;25.97;;;16.77;;
14554;SDS011;7364;50.870;4.722;2023-02-08T01:16:54;21.83;;;16.57;;
14554;SDS011;7364;50.870;4.722;2023-02-08T01:19:23;21.87;;;17.00;;
14554;SDS011;7364;50.870;4.722;2023-02-08T01:21:50;20.80;;;15.47;;
14554;SDS011;7364;50.870;4.722;2023-02-08T01:24:18;21.27;;;14.90;;
14554;SDS011;7364;50.870;4.722;2023-02-08T01:26:48;25.27;;;16.57;;
14554;SDS011;7364;50.870;4.722;2023-02-08T01:29:15;24.27;;;16.13;;
14554;SDS011;7364;50.870;4.722;2023-02-08T01:31:44;20.23;;;14.33;;
14554;SDS011;7364;50.870;4.722;2023-02-08T01:34:12;22.90;;;14.37;;
14554;SDS011;7364;50.870;4.722;2023-02-08T01:36:40;26.80;;;15.40;;
14554;SDS011;7364;50.870;4.722;2023-02-08T01:39:17;25.20;;;15.37;;
14554;SDS011;7364;50.870;4.722;2023-02-08T01:41:45;25.97;;;16.27;;
14554;SDS011;7364;50.870;4.722;2023-02-08T01:47:31;23.43;;;14.63;;
14554;SDS011;7364;50.870;4.722;2023-02-08T01:49:59;24.23;;;17.17;;
14554;SDS011;7364;50.870;4.722;2023-02-08T01:52:28;24.63;;;16.60;;
14554;SDS011;7364;50.870;4.722;2023-02-08T01:54:56;25.20;;;16.97;;
14554;SDS011;7364;50.870;4.722;2023-02-08T01:57:27;24.80;;;16.20;;
14554;SDS011;7364;50.870;4.722;2023-02-08T01:59:56;22.03;;;15.93;;
14554;SDS011;7364;50.870;4.722;2023-02-08T02:02:27;24.73;;;15.50;;
14554;SDS011;7364;50.870;4.722;2023-02-08T02:04:55;19.13;;;15.13;;
14554;SDS011;7364;50.870;4.722;2023-02-08T02:07:24;24.17;;;15.83;;
14554;SDS011;7364;50.870;4.722;2023-02-08T02:09:57;24.57;;;15.10;;
14554;SDS011;7364;50.870;4.722;2023-02-08T02:12:29;24.50;;;15.93;;
14554;SDS011;7364;50.870;4.722;2023-02-08T02:14:57;25.47;;;15.90;;
14554;SDS011;7364;50.870;4.722;2023-02-08T02:17:26;20.97;;;16.07;;
14554;SDS011;7364;50.870;4.722;2023-02-08T02:25:55;24.43;;;14.80;;
14554;SDS011;7364;50.870;4.722;2023-02-08T02:34:40;20.80;;;14.40;;
14554;SDS011;7364;50.870;4.722;2023-02-08T02:37:16;19.20;;;15.00;;
14554;SDS011;7364;50.870;4.722;2023-02-08T02:40:06;17.37;;;13.73;;
14554;SDS011;7364;50.870;4.722;2023-02-08T02:42:41;22.03;;;15.23;;
14554;SDS011;7364;50.870;4.722;2023-02-08T02:45:42;21.47;;;15.40;;
14554;SDS011;7364;50.870;4.722;2023-02-08T02:48:18;21.67;;;15.37;;
14554;SDS011;7364;50.870;4.722;2023-02-08T02:50:54;21.53;;;14.43;;
14554;SDS011;7364;50.870;4.722;2023-02-08T02:53:26;22.43;;;14.63;;
14554;SDS011;7364;50.870;4.722;2023-02-08T02:56:04;21.07;;;13.67;;
14554;SDS011;7364;50.870;4.722;2023-02-08T02:58:39;25.13;;;14.50;;
14554;SDS011;7364;50.870;4.722;2023-02-08T03:01:08;18.63;;;14.47;;
14554;SDS011;7364;50.870;4.722;2023-02-08T03:03:36;21.63;;;14.73;;
14554;SDS011;7364;50.870;4.722;2023-02-08T03:06:05;19.67;;;15.53;;
14554;SDS011;7364;50.870;4.722;2023-02-08T03:08:44;23.73;;;15.43;;
14554;SDS011;7364;50.870;4.722;2023-02-08T03:11:34;17.83;;;13.70;;
14554;SDS011;7364;50.870;4.722;2023-02-08T03:14:13;20.23;;;14.87;;
14554;SDS011;7364;50.870;4.722;2023-02-08T03:17:02;23.77;;;14.90;;
14554;SDS011;7364;50.870;4.722;2023-02-08T03:19:42;21.27;;;15.17;;
14554;SDS011;7364;50.870;4.722;2023-02-08T03:22:20;19.73;;;13.70;;
14554;SDS011;7364;50.870;4.722;2023-02-08T03:24:55;25.77;;;15.93;;
14554;SDS011;7364;50.870;4.722;2023-02-08T03:27:31;20.23;;;14.87;;
14554;SDS011;7364;50.870;4.722;2023-02-08T03:30:02;25.30;;;15.97;;
14554;SDS011;7364;50.870;4.722;2023-02-08T03:32:39;23.73;;;15.80;;
14554;SDS011;7364;50.870;4.722;2023-02-08T03:35:14;24.67;;;16.27;;
14554;SDS011;7364;50.870;4.722;2023-02-08T03:37:47;22.03;;;14.33;;
14554;SDS011;7364;50.870;4.722;2023-02-08T03:40:21;20.67;;;14.20;;
14554;SDS011;7364;50.870;4.722;2023-02-08T03:42:53;21.53;;;14.10;;
14554;SDS011;7364;50.870;4.722;2023-02-08T03:45:25;19.97;;;14.13;;
14554;SDS011;7364;50.870;4.722;2023-02-08T03:47:57;17.47;;;14.27;;
14554;SDS011;7364;50.870;4.722;2023-02-08T03:50:31;21.83;;;14.73;;
14554;SDS011;7364;50.870;4.722;2023-02-08T03:53:01;22.40;;;15.77;;
14554;SDS011;7364;50.870;4.722;2023-02-08T03:55:30;22.33;;;15.33;;
14554;SDS011;7364;50.870;4.722;2023-02-08T03:58:02;20.63;;;15.23;;
14554;SDS011;7364;50.870;4.722;2023-02-08T04:00:39;21.10;;;15.00;;
14554;SDS011;7364;50.870;4.722;2023-02-08T04:03:12;22.20;;;16.13;;
14554;SDS011;7364;50.870;4.722;2023-02-08T04:05:44;21.77;;;15.07;;
14554;SDS011;7364;50.870;4.722;2023-02-08T04:08:12;24.27;;;15.23;;
14554;SDS011;7364;50.870;4.722;2023-02-08T04:10:39;21.27;;;15.53;;
14554;SDS011;7364;50.870;4.722;2023-02-08T04:13:06;26.03;;;14.60;;
14554;SDS011;7364;50.870;4.722;2023-02-08T04:15:34;23.77;;;15.60;;
14554;SDS011;7364;50.870;4.722;2023-02-08T04:18:01;21.83;;;16.07;;
14554;SDS011;7364;50.870;4.722;2023-02-08T04:20:28;22.70;;;15.13;;
14554;SDS011;7364;50.870;4.722;2023-02-08T04:22:57;25.73;;;15.07;;
14554;SDS011;7364;50.870;4.722;2023-02-08T04:25:25;19.13;;;15.33;;
14554;SDS011;7364;50.870;4.722;2023-02-08T04:27:52;22.43;;;15.87;;
14554;SDS011;7364;50.870;4.722;2023-02-08T04:30:19;20.50;;;15.17;;
14554;SDS011;7364;50.870;4.722;2023-02-08T04:32:47;23.37;;;16.50;;
14554;SDS011;7364;50.870;4.722;2023-02-08T04:35:14;24.20;;;14.03;;
14554;SDS011;7364;50.870;4.722;2023-02-08T04:37:44;23.50;;;16.17;;
14554;SDS011;7364;50.870;4.722;2023-02-08T04:40:13;21.67;;;15.80;;
14554;SDS011;7364;50.870;4.722;2023-02-08T04:42:40;22.73;;;15.63;;
14554;SDS011;7364;50.870;4.722;2023-02-08T04:45:07;19.47;;;15.00;;
14554;SDS011;7364;50.870;4.722;2023-02-08T04:47:35;20.87;;;15.03;;
14554;SDS011;7364;50.870;4.722;2023-02-08T04:50:03;17.23;;;14.40;;
14554;SDS011;7364;50.870;4.722;2023-02-08T04:52:30;25.23;;;16.23;;
14554;SDS011;7364;50.870;4.722;2023-02-08T04:54:58;21.57;;;15.07;;
14554;SDS011;7364;50.870;4.722;2023-02-08T04:57:26;29.63;;;17.00;;
14554;SDS011;7364;50.870;4.722;2023-02-08T04:59:53;27.70;;;15.80;;
14554;SDS011;7364;50.870;4.722;2023-02-08T05:02:21;23.03;;;14.67;;
14554;SDS011;7364;50.870;4.722;2023-02-08T05:04:48;21.20;;;14.70;;
14554;SDS011;7364;50.870;4.722;2023-02-08T05:07:15;23.70;;;16.27;;
14554;SDS011;7364;50.870;4.722;2023-02-08T05:09:42;24.07;;;15.90;;
14554;SDS011;7364;50.870;4.722;2023-02-08T05:12:10;28.83;;;16.17;;
14554;SDS011;7364;50.870;4.722;2023-02-08T05:14:39;21.57;;;16.13;;
14554;SDS011;7364;50.870;4.722;2023-02-08T05:17:06;27.03;;;16.27;;
14554;SDS011;7364;50.870;4.722;2023-02-08T05:19:33;19.67;;;15.50;;
14554;SDS011;7364;50.870;4.722;2023-02-08T05:22:00;22.10;;;14.93;;
14554;SDS011;7364;50.870;4.722;2023-02-08T05:24:30;24.07;;;15.97;;
14554;SDS011;7364;50.870;4.722;2023-02-08T05:26:57;21.67;;;16.47;;
14554;SDS011;7364;50.870;4.722;2023-02-08T05:29:24;22.73;;;15.33;;
14554;SDS011;7364;50.870;4.722;2023-02-08T05:31:53;23.47;;;16.97;;
14554;SDS011;7364;50.870;4.722;2023-02-08T05:34:20;22.20;;;15.17;;
14554;SDS011;7364;50.870;4.722;2023-02-08T05:36:47;24.77;;;15.97;;
14554;SDS011;7364;50.870;4.722;2023-02-08T05:39:15;21.70;;;15.33;;
14554;SDS011;7364;50.870;4.722;2023-02-08T05:41:42;21.93;;;16.10;;
14554;SDS011;7364;50.870;4.722;2023-02-08T05:44:10;20.80;;;15.43;;
14554;SDS011;7364;50.870;4.722;2023-02-08T05:46:37;28.40;;;15.97;;
14554;SDS011;7364;50.870;4.722;2023-02-08T05:49:06;23.03;;;15.93;;
14554;SDS011;7364;50.870;4.722;2023-02-08T05:51:36;24.50;;;15.93;;
14554;SDS011;7364;50.870;4.722;2023-02-08T05:54:03;25.57;;;15.70;;
14554;SDS011;7364;50.870;4.722;2023-02-08T05:56:31;24.30;;;15.90;;
14554;SDS011;7364;50.870;4.722;2023-02-08T05:58:59;22.03;;;15.90;;
14554;SDS011;7364;50.870;4.722;2023-02-08T06:01:26;24.37;;;15.67;;
14554;SDS011;7364;50.870;4.722;2023-02-08T06:03:54;25.97;;;16.67;;
14554;SDS011;7364;50.870;4.722;2023-02-08T06:06:25;22.97;;;15.93;;
14554;SDS011;7364;50.870;4.722;2023-02-08T06:08:52;19.70;;;15.27;;
14554;SDS011;7364;50.870;4.722;2023-02-08T06:11:19;20.40;;;16.33;;
14554;SDS011;7364;50.870;4.722;2023-02-08T06:13:47;26.87;;;15.50;;
14554;SDS011;7364;50.870;4.722;2023-02-08T06:16:14;21.93;;;16.97;;
14554;SDS011;7364;50.870;4.722;2023-02-08T06:18:42;21.77;;;15.00;;
14554;SDS011;7364;50.870;4.722;2023-02-08T06:21:12;23.03;;;16.00;;
14554;SDS011;7364;50.870;4.722;2023-02-08T06:23:41;22.63;;;16.50;;
14554;SDS011;7364;50.870;4.722;2023-02-08T06:26:08;21.87;;;14.93;;
14554;SDS011;7364;50.870;4.722;2023-02-08T06:28:35;20.63;;;15.87;;
14554;SDS011;7364;50.870;4.722;2023-02-08T06:31:03;21.67;;;14.70;;
14554;SDS011;7364;50.870;4.722;2023-02-08T06:33:31;23.90;;;16.40;;
14554;SDS011;7364;50.870;4.722;2023-02-08T06:35:58;25.80;;;16.67;;
14554;SDS011;7364;50.870;4.722;2023-02-08T06:38:25;20.03;;;15.27;;
14554;SDS011;7364;50.870;4.722;2023-02-08T06:40:54;21.67;;;16.77;;
14554;SDS011;7364;50.870;4.722;2023-02-08T06:43:21;23.97;;;18.00;;
14554;SDS011;7364;50.870;4.722;2023-02-08T06:45:49;24.70;;;17.13;;
14554;SDS011;7364;50.870;4.722;2023-02-08T06:48:16;24.87;;;17.63;;
14554;SDS011;7364;50.870;4.722;2023-02-08T06:50:43;23.40;;;16.57;;
14554;SDS011;7364;50.870;4.722;2023-02-08T06:53:10;21.33;;;15.87;;
14554;SDS011;7364;50.870;4.722;2023-02-08T06:55:39;22.57;;;16.53;;
14554;SDS011;7364;50.870;4.722;2023-02-08T06:58:08;26.70;;;16.63;;
14554;SDS011;7364;50.870;4.722;2023-02-08T07:00:36;22.97;;;15.70;;
14554;SDS011;7364;50.870;4.722;2023-02-08T07:03:04;23.13;;;17.80;;
14554;SDS011;7364;50.870;4.722;2023-02-08T07:05:32;24.07;;;16.23;;
14554;SDS011;7364;50.870;4.722;2023-02-08T07:08:00;21.43;;;14.63;;
14554;SDS011;7364;50.870;4.722;2023-02-08T07:10:28;23.53;;;15.60;;
14554;SDS011;7364;50.870;4.722;2023-02-08T07:12:55;23.37;;;15.60;;
14554;SDS011;7364;50.870;4.722;2023-02-08T07:15:24;22.60;;;15.87;;
14554;SDS011;7364;50.870;4.722;2023-02-08T07:17:51;25.30;;;17.70;;
14554;SDS011;7364;50.870;4.722;2023-02-08T07:20:19;26.13;;;17.27;;
14554;SDS011;7364;50.870;4.722;2023-02-08T07:22:46;22.70;;;17.00;;
14554;SDS011;7364;50.870;4.722;2023-02-08T07:25:13;25.43;;;16.60;;
14554;SDS011;7364;50.870;4.722;2023-02-08T07:27:41;22.80;;;16.37;;
14554;SDS011;7364;50.870;4.722;2023-02-08T07:30:08;22.13;;;16.37;;
14554;SDS011;7364;50.870;4.722;2023-02-08T07:32:38;23.90;;;16.83;;
14554;SDS011;7364;50.870;4.722;2023-02-08T07:35:05;25.23;;;16.70;;
14554;SDS011;7364;50.870;4.722;2023-02-08T07:37:33;24.77;;;15.03;;
14554;SDS011;7364;50.870;4.722;2023-02-08T07:40:01;25.77;;;16.63;;
14554;SDS011;7364;50.870;4.722;2023-02-08T07:42:28;24.40;;;16.47;;
14554;SDS011;7364;50.870;4.722;2023-02-08T07:44:56;22.97;;;17.00;;
14554;SDS011;7364;50.870;4.722;2023-02-08T07:47:24;26.20;;;17.17;;
14554;SDS011;7364;50.870;4.722;2023-02-08T07:49:53;23.80;;;16.50;;
14554;SDS011;7364;50.870;4.722;2023-02-08T07:52:20;27.83;;;17.20;;
14554;SDS011;7364;50.870;4.722;2023-02-08T07:54:49;25.30;;;17.00;;
14554;SDS011;7364;50.870;4.722;2023-02-08T07:57:18;27.07;;;16.63;;
14554;SDS011;7364;50.870;4.722;2023-02-08T07:59:46;22.60;;;17.07;;
14554;SDS011;7364;50.870;4.722;2023-02-08T08:02:14;29.87;;;18.20;;
14554;SDS011;7364;50.870;4.722;2023-02-08T08:04:41;23.60;;;18.63;;
14554;SDS011;7364;50.870;4.722;2023-02-08T08:07:10;22.33;;;16.93;;
14554;SDS011;7364;50.870;4.722;2023-02-08T08:09:38;25.60;;;17.40;;
14554;SDS011;7364;50.870;4.722;2023-02-08T08:12:05;24.03;;;16.30;;
14554;SDS011;7364;50.870;4.722;2023-02-08T08:14:32;24.90;;;18.00;;
14554;SDS011;7364;50.870;4.722;2023-02-08T08:17:00;26.70;;;18.20;;
14554;SDS011;7364;50.870;4.722;2023-02-08T08:19:27;24.37;;;18.67;;
14554;SDS011;7364;50.870;4.722;2023-02-08T08:21:54;27.93;;;19.53;;
14554;SDS011;7364;50.870;4.722;2023-02-08T08:24:23;26.87;;;18.70;;
14554;SDS011;7364;50.870;4.722;2023-02-08T08:26:51;29.53;;;19.77;;
14554;SDS011;7364;50.870;4.722;2023-02-08T08:29:18;30.97;;;18.63;;
14554;SDS011;7364;50.870;4.722;2023-02-08T08:31:45;29.17;;;18.00;;
14554;SDS011;7364;50.870;4.722;2023-02-08T08:34:13;23.73;;;18.00;;
14554;SDS011;7364;50.870;4.722;2023-02-08T08:36:40;28.17;;;18.47;;
14554;SDS011;7364;50.870;4.722;2023-02-08T08:39:08;24.17;;;16.53;;
14554;SDS011;7364;50.870;4.722;2023-02-08T08:41:39;28.63;;;17.23;;
14554;SDS011;7364;50.870;4.722;2023-02-08T08:44:06;23.23;;;17.17;;
14554;SDS011;7364;50.870;4.722;2023-02-08T08:46:34;23.07;;;16.90;;
14554;SDS011;7364;50.870;4.722;2023-02-08T08:49:01;25.77;;;16.57;;
14554;SDS011;7364;50.870;4.722;2023-02-08T08:51:29;25.00;;;16.57;;
14554;SDS011;7364;50.870;4.722;2023-02-08T08:53:59;17.60;;;15.10;;
14554;SDS011;7364;50.870;4.722;2023-02-08T08:56:27;19.53;;;15.23;;
14554;SDS011;7364;50.870;4.722;2023-02-08T08:58:56;16.83;;;15.03;;
14554;SDS011;7364;50.870;4.722;2023-02-08T09:01:24;24.20;;;15.77;;
14554;SDS011;7364;50.870;4.722;2023-02-08T09:03:52;22.40;;;14.57;;
14554;SDS011;7364;50.870;4.722;2023-02-08T09:06:19;21.80;;;14.80;;
14554;SDS011;7364;50.870;4.722;2023-02-08T09:08:47;16.50;;;13.53;;
14554;SDS011;7364;50.870;4.722;2023-02-08T09:11:15;18.20;;;13.40;;
14554;SDS011;7364;50.870;4.722;2023-02-08T09:13:42;15.50;;;12.60;;
14554;SDS011;7364;50.870;4.722;2023-02-08T09:16:12;24.67;;;14.33;;
14554;SDS011;7364;50.870;4.722;2023-02-08T09:18:41;16.50;;;12.73;;
14554;SDS011;7364;50.870;4.722;2023-02-08T09:21:09;20.40;;;13.87;;
14554;SDS011;7364;50.870;4.722;2023-02-08T09:23:39;14.93;;;12.27;;
14554;SDS011;7364;50.870;4.722;2023-02-08T09:26:10;19.70;;;14.03;;
14554;SDS011;7364;50.870;4.722;2023-02-08T09:28:38;15.40;;;12.60;;
14554;SDS011;7364;50.870;4.722;2023-02-08T09:31:06;16.03;;;11.83;;
14554;SDS011;7364;50.870;4.722;2023-02-08T09:33:35;17.13;;;11.40;;
14554;SDS011;7364;50.870;4.722;2023-02-08T09:36:03;16.43;;;12.00;;
14554;SDS011;7364;50.870;4.722;2023-02-08T09:38:32;14.90;;;11.00;;
14554;SDS011;7364;50.870;4.722;2023-02-08T09:41:02;12.67;;;10.83;;
14554;SDS011;7364;50.870;4.722;2023-02-08T09:43:39;16.07;;;11.03;;
14554;SDS011;7364;50.870;4.722;2023-02-08T09:46:14;14.10;;;10.73;;
14554;SDS011;7364;50.870;4.722;2023-02-08T09:48:45;12.90;;;9.87;;
14554;SDS011;7364;50.870;4.722;2023-02-08T09:51:18;14.17;;;10.70;;
14554;SDS011;7364;50.870;4.722;2023-02-08T09:53:53;13.03;;;9.87;;
14554;SDS011;7364;50.870;4.722;2023-02-08T09:56:25;14.17;;;10.47;;
14554;SDS011;7364;50.870;4.722;2023-02-08T09:58:55;14.40;;;9.70;;
14554;SDS011;7364;50.870;4.722;2023-02-08T10:01:24;15.83;;;10.47;;
14554;SDS011;7364;50.870;4.722;2023-02-08T10:03:56;12.30;;;8.97;;
14554;SDS011;7364;50.870;4.722;2023-02-08T10:06:29;16.33;;;9.30;;
14554;SDS011;7364;50.870;4.722;2023-02-08T10:08:58;9.50;;;8.50;;
14554;SDS011;7364;50.870;4.722;2023-02-08T10:11:39;10.90;;;8.23;;
14554;SDS011;7364;50.870;4.722;2023-02-08T10:14:21;10.53;;;7.67;;
14554;SDS011;7364;50.870;4.722;2023-02-08T10:17:03;8.97;;;6.83;;
14554;SDS011;7364;50.870;4.722;2023-02-08T10:19:47;10.80;;;6.63;;
14554;SDS011;7364;50.870;4.722;2023-02-08T10:22:28;9.57;;;7.47;;
14554;SDS011;7364;50.870;4.722;2023-02-08T10:25:15;9.80;;;7.00;;
14554;SDS011;7364;50.870;4.722;2023-02-08T10:28:00;12.20;;;7.40;;
14554;SDS011;7364;50.870;4.722;2023-02-08T10:30:43;9.87;;;7.10;;
14554;SDS011;7364;50.870;4.722;2023-02-08T10:33:16;9.73;;;7.07;;
14554;SDS011;7364;50.870;4.722;2023-02-08T10:35:51;7.97;;;6.37;;
14554;SDS011;7364;50.870;4.722;2023-02-08T10:38:24;9.80;;;6.37;;
14554;SDS011;7364;50.870;4.722;2023-02-08T10:40:54;11.60;;;6.80;;
14554;SDS011;7364;50.870;4.722;2023-02-08T10:43:27;7.83;;;6.50;;
14554;SDS011;7364;50.870;4.722;2023-02-08T10:46:03;9.30;;;6.53;;
14554;SDS011;7364;50.870;4.722;2023-02-08T10:48:48;8.30;;;6.60;;
14554;SDS011;7364;50.870;4.722;2023-02-08T10:51:27;8.67;;;5.63;;
14554;SDS011;7364;50.870;4.722;2023-02-08T10:53:55;10.13;;;6.43;;
14554;SDS011;7364;50.870;4.722;2023-02-08T10:56:30;11.27;;;6.97;;
14554;SDS011;7364;50.870;4.722;2023-02-08T10:59:04;8.47;;;6.53;;
14554;SDS011;7364;50.870;4.722;2023-02-08T11:01:43;8.07;;;6.20;;
14554;SDS011;7364;50.870;4.722;2023-02-08T11:04:13;8.53;;;5.97;;
14554;SDS011;7364;50.870;4.722;2023-02-08T11:06:43;7.60;;;5.57;;
14554;SDS011;7364;50.870;4.722;2023-02-08T11:09:24;10.67;;;6.40;;
14554;SDS011;7364;50.870;4.722;2023-02-08T11:11:53;8.37;;;4.90;;
14554;SDS011;7364;50.870;4.722;2023-02-08T11:14:22;8.50;;;5.77;;
14554;SDS011;7364;50.870;4.722;2023-02-08T11:16:52;7.03;;;4.80;;
14554;SDS011;7364;50.870;4.722;2023-02-08T11:19:22;8.10;;;5.23;;
14554;SDS011;7364;50.870;4.722;2023-02-08T11:22:04;8.33;;;5.30;;
14554;SDS011;7364;50.870;4.722;2023-02-08T11:24:33;7.43;;;5.10;;
14554;SDS011;7364;50.870;4.722;2023-02-08T11:27:14;6.33;;;5.20;;
14554;SDS011;7364;50.870;4.722;2023-02-08T11:29:44;7.07;;;4.73;;
14554;SDS011;7364;50.870;4.722;2023-02-08T11:32:34;7.07;;;5.27;;
14554;SDS011;7364;50.870;4.722;2023-02-08T11:35:10;6.43;;;4.63;;
14554;SDS011;7364;50.870;4.722;2023-02-08T11:37:39;7.03;;;5.40;;
14554;SDS011;7364;50.870;4.722;2023-02-08T11:40:16;8.87;;;5.53;;
14554;SDS011;7364;50.870;4.722;2023-02-08T11:42:47;7.60;;;4.83;;
14554;SDS011;7364;50.870;4.722;2023-02-08T11:45:17;6.90;;;4.37;;
14554;SDS011;7364;50.870;4.722;2023-02-08T11:47:48;7.80;;;5.50;;
14554;SDS011;7364;50.870;4.722;2023-02-08T11:50:20;7.37;;;4.47;;
14554;SDS011;7364;50.870;4.722;2023-02-08T11:52:54;11.27;;;5.10;;
14554;SDS011;7364;50.870;4.722;2023-02-08T11:55:25;6.33;;;4.87;;
14554;SDS011;7364;50.870;4.722;2023-02-08T11:57:54;6.87;;;4.60;;
14554;SDS011;7364;50.870;4.722;2023-02-08T12:00:26;7.47;;;5.27;;
14554;SDS011;7364;50.870;4.722;2023-02-08T12:02:55;8.00;;;5.57;;
14554;SDS011;7364;50.870;4.722;2023-02-08T12:05:27;7.20;;;5.40;;
14554;SDS011;7364;50.870;4.722;2023-02-08T12:08:05;6.83;;;4.80;;
14554;SDS011;7364;50.870;4.722;2023-02-08T12:10:58;7.10;;;4.60;;
14554;SDS011;7364;50.870;4.722;2023-02-08T12:13:57;6.13;;;4.50;;
14554;SDS011;7364;50.870;4.722;2023-02-08T12:16:34;8.40;;;4.83;;
14554;SDS011;7364;50.870;4.722;2023-02-08T12:22:25;9.53;;;4.10;;
14554;SDS011;7364;50.870;4.722;2023-02-08T12:24:57;7.93;;;4.77;;
14554;SDS011;7364;50.870;4.722;2023-02-08T12:27:40;6.50;;;4.50;;
14554;SDS011;7364;50.870;4.722;2023-02-08T12:30:16;6.57;;;4.30;;
14554;SDS011;7364;50.870;4.722;2023-02-08T12:33:04;5.23;;;4.50;;
14554;SDS011;7364;50.870;4.722;2023-02-08T12:36:03;6.63;;;3.90;;
14554;SDS011;7364;50.870;4.722;2023-02-08T12:39:02;4.63;;;4.00;;
14554;SDS011;7364;50.870;4.722;2023-02-08T12:42:08;7.00;;;4.67;;
14554;SDS011;7364;50.870;4.722;2023-02-08T12:44:55;5.77;;;4.00;;
14554;SDS011;7364;50.870;4.722;2023-02-08T12:47:53;6.27;;;4.53;;
14554;SDS011;7364;50.870;4.722;2023-02-08T12:50:30;6.57;;;4.13;;
14554;SDS011;7364;50.870;4.722;2023-02-08T12:53:07;6.37;;;4.40;;
14554;SDS011;7364;50.870;4.722;2023-02-08T12:55:41;6.70;;;4.73;;
14554;SDS011;7364;50.870;4.722;2023-02-08T12:58:17;6.50;;;4.93;;
14554;SDS011;7364;50.870;4.722;2023-02-08T13:00:51;7.57;;;4.47;;
14554;SDS011;7364;50.870;4.722;2023-02-08T13:03:26;5.83;;;4.77;;
14554;SDS011;7364;50.870;4.722;2023-02-08T13:06:01;6.93;;;4.67;;
14554;SDS011;7364;50.870;4.722;2023-02-08T13:08:33;6.77;;;4.60;;
14554;SDS011;7364;50.870;4.722;2023-02-08T13:11:10;5.70;;;4.20;;
14554;SDS011;7364;50.870;4.722;2023-02-08T13:13:46;5.37;;;4.53;;
14554;SDS011;7364;50.870;4.722;2023-02-08T13:16:22;6.60;;;5.13;;
14554;SDS011;7364;50.870;4.722;2023-02-08T13:18:54;4.63;;;3.90;;
14554;SDS011;7364;50.870;4.722;2023-02-08T13:21:33;8.60;;;4.90;;
14554;SDS011;7364;50.870;4.722;2023-02-08T13:24:06;7.10;;;4.83;;
14554;SDS011;7364;50.870;4.722;2023-02-08T13:26:41;5.80;;;4.70;;
14554;SDS011;7364;50.870;4.722;2023-02-08T13:29:14;6.97;;;4.70;;
14554;SDS011;7364;50.870;4.722;2023-02-08T13:31:46;7.47;;;4.87;;
14554;SDS011;7364;50.870;4.722;2023-02-08T13:34:17;6.73;;;5.23;;
14554;SDS011;7364;50.870;4.722;2023-02-08T13:36:53;10.87;;;5.23;;
14554;SDS011;7364;50.870;4.722;2023-02-08T13:39:29;8.87;;;6.03;;
14554;SDS011;7364;50.870;4.722;2023-02-08T13:42:00;6.43;;;4.73;;
14554;SDS011;7364;50.870;4.722;2023-02-08T13:44:32;5.37;;;4.07;;
14554;SDS011;7364;50.870;4.722;2023-02-08T13:47:05;10.43;;;5.07;;
14554;SDS011;7364;50.870;4.722;2023-02-08T13:49:51;6.87;;;4.70;;
14554;SDS011;7364;50.870;4.722;2023-02-08T13:58:28;7.00;;;4.53;;
14554;SDS011;7364;50.870;4.722;2023-02-08T14:01:20;5.60;;;4.00;;
14554;SDS011;7364;50.870;4.722;2023-02-08T14:06:57;4.33;;;3.70;;
14554;SDS011;7364;50.870;4.722;2023-02-08T14:09:29;9.13;;;3.60;;
14554;SDS011;7364;50.870;4.722;2023-02-08T14:12:11;9.67;;;4.40;;
14554;SDS011;7364;50.870;4.722;2023-02-08T14:17:49;4.30;;;3.30;;
14554;SDS011;7364;50.870;4.722;2023-02-08T14:20:20;12.43;;;3.37;;
14554;SDS011;7364;50.870;4.722;2023-02-08T14:22:53;5.30;;;4.10;;
14554;SDS011;7364;50.870;4.722;2023-02-08T14:25:23;5.67;;;3.70;;
14554;SDS011;7364;50.870;4.722;2023-02-08T14:27:53;6.43;;;4.30;;
14554;SDS011;7364;50.870;4.722;2023-02-08T14:30:24;6.27;;;4.17;;
14554;SDS011;7364;50.870;4.722;2023-02-08T14:33:09;5.73;;;4.73;;
14554;SDS011;7364;50.870;4.722;2023-02-08T14:35:49;4.97;;;3.53;;
14554;SDS011;7364;50.870;4.722;2023-02-08T14:38:32;7.13;;;4.10;;
14554;SDS011;7364;50.870;4.722;2023-02-08T14:50:39;4.00;;;3.03;;
14554;SDS011;7364;50.870;4.722;2023-02-08T14:53:16;8.80;;;3.97;;
14554;SDS011;7364;50.870;4.722;2023-02-08T14:55:50;5.53;;;3.50;;
14554;SDS011;7364;50.870;4.722;2023-02-08T14:58:26;8.93;;;3.87;;
14554;SDS011;7364;50.870;4.722;2023-02-08T15:00:56;6.97;;;4.10;;
14554;SDS011;7364;50.870;4.722;2023-02-08T15:03:28;8.10;;;3.97;;
14554;SDS011;7364;50.870;4.722;2023-02-08T15:09:12;6.80;;;3.60;;
14554;SDS011;7364;50.870;4.722;2023-02-08T15:11:46;4.60;;;3.40;;
14554;SDS011;7364;50.870;4.722;2023-02-08T15:14:17;8.13;;;3.50;;
14554;SDS011;7364;50.870;4.722;2023-02-08T15:16:46;6.43;;;3.80;;
14554;SDS011;7364;50.870;4.722;2023-02-08T15:19:19;6.10;;;3.80;;
14554;SDS011;7364;50.870;4.722;2023-02-08T15:21:50;5.97;;;3.80;;
14554;SDS011;7364;50.870;4.722;2023-02-08T15:24:18;6.03;;;3.90;;
14554;SDS011;7364;50.870;4.722;2023-02-08T15:26:48;4.90;;;3.87;;
14554;SDS011;7364;50.870;4.722;2023-02-08T15:29:18;3.97;;;2.93;;
14554;SDS011;7364;50.870;4.722;2023-02-08T15:31:48;7.03;;;3.87;;
14554;SDS011;7364;50.870;4.722;2023-02-08T15:34:16;6.77;;;4.13;;
14554;SDS011;7364;50.870;4.722;2023-02-08T15:36:45;7.03;;;4.13;;
14554;SDS011;7364;50.870;4.722;2023-02-08T15:39:24;9.60;;;7.57;;
14554;SDS011;7364;50.870;4.722;2023-02-08T15:41:58;6.73;;;4.00;;
14554;SDS011;7364;50.870;4.722;2023-02-08T15:44:27;5.43;;;3.57;;
14554;SDS011;7364;50.870;4.722;2023-02-08T15:46:56;5.80;;;3.60;;
14554;SDS011;7364;50.870;4.722;2023-02-08T15:49:29;6.37;;;4.37;;
14554;SDS011;7364;50.870;4.722;2023-02-08T15:52:00;5.60;;;3.60;;